Time;durP1;ratioP1;P1;durP2;ratioP2;P2;SDS_P1;SDS_P2;PMS_P1;PMS_P2;Temp;Humidity;BMP_temperature;BMP_pressure;BME280_temperature;BME280_humidity;BME280_pressure;Samples;Min_cycle;Max_cycle;Signal;HPM_P1;HPM_P2
2022/05/09 00:00:01;;;;;;;9.88;4.28;;;;;;;;;;5054083;28;20110;-29
2022/05/09 00:02:27;;;;;;;8.00;3.80;;;;;;;;;;5054537;28;20044;-26
2022/05/09 00:04:54;;;;;;;10.70;4.75;;;;;;;;;;5036806;28;20043;-28
2022/05/09 00:07:20;;;;;;;12.52;4.63;;;;;;;;;;5055108;28;20542;-28
2022/05/09 00:09:46;;;;;;;14.35;4.45;;;;;;;;;;5054954;28;20617;-25
2022/05/09 00:12:12;;;;;;;13.98;4.53;;;;;;;;;;5054788;28;20068;-27
2022/05/09 00:14:38;;;;;;;8.52;4.57;;;;;;;;;;5054799;28;20486;-25
2022/05/09 00:17:05;;;;;;;13.32;5.80;;;;;;;;;;5054625;28;20493;-26
2022/05/09 00:19:31;;;;;;;14.13;4.78;;;;;;;;;;5054756;28;20041;-25
2022/05/09 00:21:57;;;;;;;10.82;4.45;;;;;;;;;;5054991;28;20045;-25
2022/05/09 00:24:23;;;;;;;12.68;4.95;;;;;;;;;;5054383;28;20044;-24
2022/05/09 00:26:51;;;;;;;10.60;4.63;;;;;;;;;;5054436;28;20041;-25
2022/05/09 00:29:18;;;;;;;10.40;4.63;;;;;;;;;;5054276;28;20494;-29
2022/05/09 00:31:46;;;;;;;9.20;4.55;;;;;;;;;;5054399;28;20475;-27
2022/05/09 00:34:12;;;;;;;8.32;3.58;;;;;;;;;;5054672;28;20041;-26
2022/05/09 00:36:39;;;;;;;16.17;5.30;;;;;;;;;;5054244;28;20040;-26
2022/05/09 00:39:06;;;;;;;10.43;4.38;;;;;;;;;;5054266;28;20677;-26
2022/05/09 00:41:34;;;;;;;12.40;4.68;;;;;;;;;;5054095;28;20137;-25
2022/05/09 00:44:01;;;;;;;12.07;5.03;;;;;;;;;;5054041;28;20406;-26
2022/05/09 00:46:30;;;;;;;12.73;4.53;;;;;;;;;;5054230;28;20037;-27
2022/05/09 00:49:12;;;;;;;15.38;4.72;;;;;;;;;;5036531;28;20450;-25
2022/05/09 00:51:39;;;;;;;12.50;5.53;;;;;;;;;;5053902;28;20037;-26
2022/05/09 00:54:05;;;;;;;9.40;4.38;;;;;;;;;;5054298;28;20465;-25
2022/05/09 00:56:42;;;;;;;10.57;5.18;;;;;;;;;;5054288;28;20065;-25
2022/05/09 00:59:12;;;;;;;8.73;4.75;;;;;;;;;;5054039;28;20049;-26
2022/05/09 01:01:39;;;;;;;12.15;4.38;;;;;;;;;;5054151;28;20037;-25
2022/05/09 01:04:08;;;;;;;11.45;5.15;;;;;;;;;;5053963;28;20048;-29
2022/05/09 01:06:34;;;;;;;12.38;5.32;;;;;;;;;;5054167;28;20037;-25
2022/05/09 01:09:00;;;;;;;16.40;5.85;;;;;;;;;;5053775;28;20041;-25
2022/05/09 01:11:28;;;;;;;9.50;4.88;;;;;;;;;;5054087;28;20090;-26
2022/05/09 01:14:03;;;;;;;12.65;5.07;;;;;;;;;;5054005;28;20041;-27
2022/05/09 01:16:30;;;;;;;8.85;4.80;;;;;;;;;;5053722;28;20040;-26
2022/05/09 01:18:58;;;;;;;13.18;5.85;;;;;;;;;;5053669;28;20110;-26
2022/05/09 01:21:38;;;;;;;14.23;5.22;;;;;;;;;;5053237;28;20037;-26
2022/05/09 01:24:05;;;;;;;12.23;4.70;;;;;;;;;;5035535;28;20052;-27
2022/05/09 01:26:33;;;;;;;12.38;5.75;;;;;;;;;;5053339;28;20041;-25
2022/05/09 01:29:02;;;;;;;12.25;5.93;;;;;;;;;;5043823;28;20076;-25
2022/05/09 01:31:28;;;;;;;11.57;5.22;;;;;;;;;;5033556;28;20107;-26
2022/05/09 01:33:56;;;;;;;13.98;5.97;;;;;;;;;;5033357;28;20486;-26
2022/05/09 01:36:25;;;;;;;9.05;5.32;;;;;;;;;;5033454;28;20039;-25
2022/05/09 01:38:56;;;;;;;10.82;4.97;;;;;;;;;;5031748;28;20038;-25
2022/05/09 01:41:22;;;;;;;10.18;6.03;;;;;;;;;;5032135;28;20581;-27
2022/05/09 01:43:50;;;;;;;12.30;5.82;;;;;;;;;;5033316;28;20128;-26
2022/05/09 01:46:21;;;;;;;16.35;5.75;;;;;;;;;;5033199;28;20049;-25
2022/05/09 01:51:32;;;;;;;14.70;6.00;;;;;;;;;;5033671;28;20046;-27
2022/05/09 01:53:59;;;;;;;17.08;5.60;;;;;;;;;;5033414;28;20483;-25
2022/05/09 01:56:27;;;;;;;9.85;5.82;;;;;;;;;;5032769;28;20120;-27
2022/05/09 01:58:53;;;;;;;13.32;5.80;;;;;;;;;;5032775;28;20511;-26
2022/05/09 02:01:21;;;;;;;15.43;5.68;;;;;;;;;;5032602;28;20253;-26
2022/05/09 02:03:47;;;;;;;14.43;5.50;;;;;;;;;;5031621;28;20041;-26
2022/05/09 02:06:14;;;;;;;12.27;5.72;;;;;;;;;;5032563;28;20052;-25
2022/05/09 02:08:41;;;;;;;19.98;5.88;;;;;;;;;;5032854;28;20458;-25
2022/05/09 02:11:07;;;;;;;12.15;5.72;;;;;;;;;;5033141;28;20514;-27
2022/05/09 02:13:33;;;;;;;11.43;5.25;;;;;;;;;;5033079;28;20426;-27
2022/05/09 02:15:59;;;;;;;15.95;5.90;;;;;;;;;;5031371;28;20052;-25
2022/05/09 02:18:25;;;;;;;12.27;5.00;;;;;;;;;;5032547;28;20120;-25
2022/05/09 02:20:52;;;;;;;12.27;5.38;;;;;;;;;;5032748;28;20483;-25
2022/05/09 02:23:19;;;;;;;14.73;6.15;;;;;;;;;;5032395;28;20081;-26
2022/05/09 02:25:46;;;;;;;10.23;5.50;;;;;;;;;;5033006;28;20443;-26
2022/05/09 02:28:13;;;;;;;13.43;5.78;;;;;;;;;;5032624;28;20121;-27
2022/05/09 02:30:40;;;;;;;11.20;5.25;;;;;;;;;;5032504;28;20052;-25
2022/05/09 02:33:06;;;;;;;14.88;5.85;;;;;;;;;;5032432;28;20053;-27
2022/05/09 02:35:33;;;;;;;9.68;4.97;;;;;;;;;;5032258;28;20045;-27
2022/05/09 02:37:59;;;;;;;13.88;5.38;;;;;;;;;;5032254;28;20120;-25
2022/05/09 02:40:26;;;;;;;13.13;5.63;;;;;;;;;;5032112;28;20033;-26
2022/05/09 02:42:57;;;;;;;11.65;6.47;;;;;;;;;;5032235;28;20041;-26
2022/05/09 02:45:24;;;;;;;12.25;6.55;;;;;;;;;;5032171;28;20107;-25
2022/05/09 02:47:50;;;;;;;15.23;6.10;;;;;;;;;;5032027;28;20422;-26
2022/05/09 02:50:16;;;;;;;12.85;5.68;;;;;;;;;;5031680;28;20037;-25
2022/05/09 02:52:43;;;;;;;10.85;5.10;;;;;;;;;;5032019;28;20033;-28
2022/05/09 02:55:10;;;;;;;15.15;6.25;;;;;;;;;;5030848;28;20051;-26
2022/05/09 02:57:36;;;;;;;12.93;6.28;;;;;;;;;;5031948;28;20089;-26
2022/05/09 03:00:04;;;;;;;10.93;7.05;;;;;;;;;;5031662;28;20371;-25
2022/05/09 03:02:30;;;;;;;17.90;6.65;;;;;;;;;;5031890;28;20037;-25
2022/05/09 03:04:56;;;;;;;11.93;6.10;;;;;;;;;;5031969;28;20052;-25
2022/05/09 03:07:22;;;;;;;12.93;6.53;;;;;;;;;;5031640;28;20041;-25
2022/05/09 03:09:49;;;;;;;13.27;6.03;;;;;;;;;;5031934;28;20049;-26
2022/05/09 03:12:18;;;;;;;14.63;5.70;;;;;;;;;;5033016;28;20517;-29
2022/05/09 03:14:44;;;;;;;11.77;6.68;;;;;;;;;;5042348;28;20137;-30
2022/05/09 03:17:11;;;;;;;14.75;6.80;;;;;;;;;;5049898;28;20080;-30
2022/05/09 03:19:37;;;;;;;13.30;6.63;;;;;;;;;;5049767;28;20095;-30
2022/05/09 03:22:03;;;;;;;16.10;6.75;;;;;;;;;;5050857;28;20037;-32
2022/05/09 03:24:29;;;;;;;12.00;6.05;;;;;;;;;;5050391;28;20037;-29
2022/05/09 03:26:56;;;;;;;10.85;5.90;;;;;;;;;;5049957;28;20509;-30
2022/05/09 03:29:24;;;;;;;12.15;6.85;;;;;;;;;;5032200;28;20077;-29
2022/05/09 03:31:53;;;;;;;13.73;6.72;;;;;;;;;;5049838;28;20045;-29
2022/05/09 03:34:20;;;;;;;12.82;6.38;;;;;;;;;;5049889;28;20056;-30
2022/05/09 03:36:46;;;;;;;17.65;6.05;;;;;;;;;;5050791;28;20025;-31
2022/05/09 03:39:12;;;;;;;12.27;6.05;;;;;;;;;;5042735;28;20037;-30
2022/05/09 03:41:38;;;;;;;12.98;6.18;;;;;;;;;;5048315;28;20090;-29
2022/05/09 03:44:05;;;;;;;10.70;6.18;;;;;;;;;;5050209;28;20041;-31
2022/05/09 03:46:31;;;;;;;11.23;5.90;;;;;;;;;;5032489;28;20482;-29
2022/05/09 03:48:57;;;;;;;13.23;6.75;;;;;;;;;;5043903;28;20095;-30
2022/05/09 03:51:23;;;;;;;12.90;6.38;;;;;;;;;;5031737;28;20079;-29
2022/05/09 03:53:50;;;;;;;11.30;6.97;;;;;;;;;;5050088;28;20452;-31
2022/05/09 03:56:16;;;;;;;12.35;6.30;;;;;;;;;;5043829;28;20068;-31
2022/05/09 03:58:42;;;;;;;14.73;6.50;;;;;;;;;;5046431;28;20041;-29
2022/05/09 04:01:08;;;;;;;14.50;6.45;;;;;;;;;;5028467;28;20113;-30
2022/05/09 04:03:34;;;;;;;14.38;6.90;;;;;;;;;;5036354;28;20071;-32
2022/05/09 04:06:01;;;;;;;13.68;7.40;;;;;;;;;;5041933;28;20041;-30
2022/05/09 04:08:27;;;;;;;12.13;6.45;;;;;;;;;;5039299;28;20048;-30
2022/05/09 04:10:58;;;;;;;13.10;6.72;;;;;;;;;;5044410;28;20525;-29
2022/05/09 04:13:24;;;;;;;14.48;6.93;;;;;;;;;;5050069;28;20048;-29
2022/05/09 04:18:37;;;;;;;22.35;7.68;;;;;;;;;;5044494;28;20033;-31
2022/05/09 04:21:04;;;;;;;14.57;6.97;;;;;;;;;;5043227;28;20072;-30
2022/05/09 04:23:30;;;;;;;16.25;7.30;;;;;;;;;;5043928;28;20131;-30
2022/05/09 04:25:56;;;;;;;16.60;8.05;;;;;;;;;;5045579;28;20040;-30
2022/05/09 04:28:25;;;;;;;15.80;8.95;;;;;;;;;;5043916;28;20052;-30
2022/05/09 04:30:51;;;;;;;18.30;7.95;;;;;;;;;;5038112;28;20053;-30
2022/05/09 04:33:18;;;;;;;18.70;8.30;;;;;;;;;;5044682;28;20486;-30
2022/05/09 04:35:44;;;;;;;15.55;7.63;;;;;;;;;;5038676;28;20052;-27
2022/05/09 04:38:16;;;;;;;16.02;8.60;;;;;;;;;;5041378;28;20635;-30
2022/05/09 04:40:42;;;;;;;16.15;8.10;;;;;;;;;;5045600;28;20049;-30
2022/05/09 04:43:09;;;;;;;11.98;7.47;;;;;;;;;;5049102;28;20033;-29
2022/05/09 04:45:35;;;;;;;14.05;8.38;;;;;;;;;;5048288;28;20107;-30
2022/05/09 04:48:01;;;;;;;23.17;8.75;;;;;;;;;;5033219;28;20060;-29
2022/05/09 04:50:28;;;;;;;20.38;8.73;;;;;;;;;;5052876;28;20029;-30
2022/05/09 04:52:54;;;;;;;19.48;9.60;;;;;;;;;;5044895;28;20115;-31
2022/05/09 04:55:20;;;;;;;18.00;8.13;;;;;;;;;;5052610;28;20056;-27
2022/05/09 04:57:49;;;;;;;17.20;8.63;;;;;;;;;;5038505;28;20124;-30
2022/05/09 05:00:17;;;;;;;17.67;7.72;;;;;;;;;;5050174;28;20574;-28
2022/05/09 05:02:43;;;;;;;16.38;8.70;;;;;;;;;;5052686;28;20056;-28
2022/05/09 05:05:10;;;;;;;18.17;8.38;;;;;;;;;;5050253;28;20048;-28
2022/05/09 05:07:36;;;;;;;15.02;8.10;;;;;;;;;;5052123;28;20131;-29
2022/05/09 05:10:03;;;;;;;11.13;7.82;;;;;;;;;;5045744;28;20053;-28
2022/05/09 05:12:29;;;;;;;16.92;8.10;;;;;;;;;;5052022;28;20568;-29
2022/05/09 05:14:55;;;;;;;17.10;8.20;;;;;;;;;;5051893;28;20406;-31
2022/05/09 05:17:21;;;;;;;18.35;8.30;;;;;;;;;;5051270;28;20090;-28
2022/05/09 05:19:48;;;;;;;17.42;8.45;;;;;;;;;;5051408;28;20037;-28
2022/05/09 05:22:15;;;;;;;20.50;10.00;;;;;;;;;;5046554;28;20097;-28
2022/05/09 05:24:44;;;;;;;18.90;8.05;;;;;;;;;;5051514;28;20040;-31
2022/05/09 05:27:10;;;;;;;15.95;7.88;;;;;;;;;;5043265;28;20174;-30
2022/05/09 05:29:36;;;;;;;17.15;8.50;;;;;;;;;;5043064;28;20072;-30
2022/05/09 05:32:16;;;;;;;15.02;8.68;;;;;;;;;;5052433;28;20509;-28
2022/05/09 05:34:42;;;;;;;16.80;8.15;;;;;;;;;;5044048;28;20486;-28
2022/05/09 05:37:08;;;;;;;16.98;8.52;;;;;;;;;;5043717;28;20105;-30
2022/05/09 05:39:36;;;;;;;16.60;8.90;;;;;;;;;;5051668;28;20037;-28
2022/05/09 05:42:04;;;;;;;13.15;8.65;;;;;;;;;;5051942;28;20171;-32
2022/05/09 05:44:30;;;;;;;15.55;7.63;;;;;;;;;;5052012;28;20525;-31
2022/05/09 05:46:56;;;;;;;17.55;8.25;;;;;;;;;;5052367;28;20394;-30
2022/05/09 05:49:22;;;;;;;16.58;9.02;;;;;;;;;;5051584;28;20130;-29
2022/05/09 05:51:48;;;;;;;25.35;9.02;;;;;;;;;;5049711;28;20087;-29
2022/05/09 05:54:14;;;;;;;14.90;7.97;;;;;;;;;;5046150;28;20041;-29
2022/05/09 05:56:40;;;;;;;16.95;8.63;;;;;;;;;;5051635;28;20116;-28
2022/05/09 05:59:06;;;;;;;16.80;9.50;;;;;;;;;;5051448;28;20037;-29
2022/05/09 06:01:33;;;;;;;16.00;8.57;;;;;;;;;;5052290;28;20033;-28
2022/05/09 06:04:00;;;;;;;18.15;8.20;;;;;;;;;;5045923;28;20043;-32
2022/05/09 06:06:26;;;;;;;18.05;9.02;;;;;;;;;;5052227;28;20429;-28
2022/05/09 06:08:52;;;;;;;18.77;9.02;;;;;;;;;;5051554;28;20040;-29
2022/05/09 06:11:19;;;;;;;17.50;8.85;;;;;;;;;;5051397;28;20398;-29
2022/05/09 06:13:45;;;;;;;20.20;9.02;;;;;;;;;;5051933;28;20087;-29
2022/05/09 06:16:11;;;;;;;13.95;8.93;;;;;;;;;;5051499;28;20047;-28
2022/05/09 06:18:37;;;;;;;19.00;9.05;;;;;;;;;;5051499;28;20033;-30
2022/05/09 06:21:03;;;;;;;16.35;8.20;;;;;;;;;;5050875;28;20048;-29
2022/05/09 06:23:29;;;;;;;19.55;8.20;;;;;;;;;;5033260;28;20036;-29
2022/05/09 06:25:56;;;;;;;19.25;9.35;;;;;;;;;;5051383;28;20045;-28
2022/05/09 06:28:23;;;;;;;16.15;8.23;;;;;;;;;;5051448;28;20548;-29
2022/05/09 06:30:49;;;;;;;17.90;8.30;;;;;;;;;;5052153;28;20049;-30
2022/05/09 06:33:25;;;;;;;20.92;9.35;;;;;;;;;;5043140;28;20044;-29
2022/05/09 06:35:53;;;;;;;16.33;8.63;;;;;;;;;;5051527;28;20131;-28
2022/05/09 06:38:20;;;;;;;15.25;8.15;;;;;;;;;;5039967;28;20037;-28
2022/05/09 06:40:47;;;;;;;21.10;9.13;;;;;;;;;;5048051;28;20448;-28
2022/05/09 06:43:13;;;;;;;15.35;7.82;;;;;;;;;;5040962;28;20048;-29
2022/05/09 06:45:39;;;;;;;17.13;7.93;;;;;;;;;;5045947;28;20041;-29
2022/05/09 06:48:05;;;;;;;15.48;8.48;;;;;;;;;;5043247;28;20055;-30
2022/05/09 06:50:33;;;;;;;18.73;7.63;;;;;;;;;;5050903;28;20041;-28
2022/05/09 06:53:00;;;;;;;14.27;7.13;;;;;;;;;;5043676;28;20060;-28
2022/05/09 06:55:26;;;;;;;15.32;7.28;;;;;;;;;;5033985;28;20128;-29
2022/05/09 06:57:52;;;;;;;17.63;7.68;;;;;;;;;;5051369;28;20448;-30
2022/05/09 07:00:20;;;;;;;15.45;7.63;;;;;;;;;;5048195;28;20037;-28
2022/05/09 07:02:46;;;;;;;13.60;7.18;;;;;;;;;;5047971;28;20037;-29
2022/05/09 07:05:13;;;;;;;14.90;8.00;;;;;;;;;;5042161;28;20037;-28
2022/05/09 07:07:40;;;;;;;17.17;8.40;;;;;;;;;;5049767;28;20052;-29
2022/05/09 07:10:07;;;;;;;15.80;8.07;;;;;;;;;;5050505;28;20112;-28
2022/05/09 07:12:41;;;;;;;15.65;7.35;;;;;;;;;;5050364;28;20037;-28
2022/05/09 07:15:07;;;;;;;14.32;8.40;;;;;;;;;;5050755;28;20288;-30
2022/05/09 07:17:33;;;;;;;15.57;7.60;;;;;;;;;;5050051;28;20037;-29
2022/05/09 07:19:59;;;;;;;17.92;7.93;;;;;;;;;;5032596;28;20080;-28
2022/05/09 07:22:25;;;;;;;15.52;8.63;;;;;;;;;;5050008;28;20033;-30
2022/05/09 07:24:51;;;;;;;16.23;7.60;;;;;;;;;;5051298;28;20375;-28
2022/05/09 07:27:17;;;;;;;19.00;7.68;;;;;;;;;;5050641;28;20045;-30
2022/05/09 07:29:43;;;;;;;14.88;7.93;;;;;;;;;;5050938;28;20526;-29
2022/05/09 07:32:09;;;;;;;15.35;7.70;;;;;;;;;;5050452;28;20048;-29
2022/05/09 07:34:35;;;;;;;12.73;7.05;;;;;;;;;;5050133;28;20122;-29
2022/05/09 07:37:02;;;;;;;19.50;7.72;;;;;;;;;;5050528;28;20052;-29
2022/05/09 07:39:28;;;;;;;15.52;6.75;;;;;;;;;;5042054;28;20044;-29
2022/05/09 07:41:54;;;;;;;15.00;7.15;;;;;;;;;;5050078;28;20037;-30
2022/05/09 07:44:20;;;;;;;12.15;7.57;;;;;;;;;;5050163;28;20340;-31
2022/05/09 07:46:46;;;;;;;17.20;8.38;;;;;;;;;;5049805;28;20156;-28
2022/05/09 07:49:12;;;;;;;12.75;7.20;;;;;;;;;;5049833;28;20041;-30
2022/05/09 07:51:38;;;;;;;15.52;8.02;;;;;;;;;;5049473;28;20041;-28
2022/05/09 07:54:05;;;;;;;15.55;7.68;;;;;;;;;;5045176;28;20076;-28
2022/05/09 07:56:31;;;;;;;13.07;7.20;;;;;;;;;;5049731;28;20029;-28
2022/05/09 07:58:57;;;;;;;13.32;6.72;;;;;;;;;;5049889;28;20079;-28
2022/05/09 08:01:23;;;;;;;12.40;6.55;;;;;;;;;;5032236;28;20040;-30
2022/05/09 08:03:50;;;;;;;12.02;6.95;;;;;;;;;;5045911;28;20491;-30
2022/05/09 08:06:16;;;;;;;13.25;6.78;;;;;;;;;;5053544;28;20116;-29
2022/05/09 08:08:43;;;;;;;14.77;6.88;;;;;;;;;;5053664;28;20076;-28
2022/05/09 08:11:11;;;;;;;18.42;7.45;;;;;;;;;;5053692;28;20048;-28
2022/05/09 08:13:39;;;;;;;14.68;6.82;;;;;;;;;;5054123;28;20422;-31
2022/05/09 08:16:05;;;;;;;13.98;6.32;;;;;;;;;;5053823;28;20441;-29
2022/05/09 08:18:32;;;;;;;12.23;6.75;;;;;;;;;;5053436;28;20032;-29
2022/05/09 08:20:59;;;;;;;14.60;6.70;;;;;;;;;;5053443;28;21213;-29
2022/05/09 08:23:26;;;;;;;12.48;6.80;;;;;;;;;;5035678;28;20041;-28
2022/05/09 08:25:55;;;;;;;8.38;5.72;;;;;;;;;;5053012;28;20039;-30
2022/05/09 08:28:21;;;;;;;17.58;6.75;;;;;;;;;;5051876;28;20072;-30
2022/05/09 08:30:49;;;;;;;14.35;6.30;;;;;;;;;;5052750;28;20556;-29
2022/05/09 08:33:23;;;;;;;15.40;6.85;;;;;;;;;;5032269;28;20045;-29
2022/05/09 08:35:51;;;;;;;14.00;6.05;;;;;;;;;;5034811;28;20041;-30
2022/05/09 08:38:18;;;;;;;14.07;6.25;;;;;;;;;;5053550;28;20029;-31
2022/05/09 08:40:48;;;;;;;10.80;5.63;;;;;;;;;;5053642;28;20050;-29
2022/05/09 08:43:23;;;;;;;10.98;5.85;;;;;;;;;;5044522;28;20045;-31
2022/05/09 08:45:53;;;;;;;11.45;5.93;;;;;;;;;;5035498;28;20076;-30
2022/05/09 08:48:19;;;;;;;8.45;5.35;;;;;;;;;;5053626;28;20509;-31
2022/05/09 08:50:53;;;;;;;12.00;5.30;;;;;;;;;;5053348;28;20549;-31
2022/05/09 08:53:23;;;;;;;9.07;4.63;;;;;;;;;;5053284;28;20122;-32
2022/05/09 08:55:49;;;;;;;10.77;5.00;;;;;;;;;;5045052;28;20072;-30
2022/05/09 08:58:20;;;;;;;10.95;5.18;;;;;;;;;;5044006;28;20122;-32
2022/05/09 09:00:47;;;;;;;10.35;5.53;;;;;;;;;;5053177;28;20044;-29
2022/05/09 09:03:29;;;;;;;10.98;4.18;;;;;;;;;;5052960;28;20051;-31
2022/05/09 09:05:58;;;;;;;10.23;4.25;;;;;;;;;;5051910;28;20175;-31
2022/05/09 09:08:31;;;;;;;10.23;3.80;;;;;;;;;;5052816;28;20029;-29
2022/05/09 09:10:57;;;;;;;6.90;3.53;;;;;;;;;;5054253;28;20048;-30
2022/05/09 09:13:26;;;;;;;10.63;3.80;;;;;;;;;;5051653;28;20048;-31
2022/05/09 09:16:12;;;;;;;6.50;3.70;;;;;;;;;;5044553;28;20367;-31
2022/05/09 09:18:57;;;;;;;11.75;4.90;;;;;;;;;;5051512;28;20521;-32
2022/05/09 09:21:42;;;;;;;6.35;3.85;;;;;;;;;;5052143;28;20044;-31
2022/05/09 09:24:11;;;;;;;7.72;3.72;;;;;;;;;;5051865;28;20213;-31
2022/05/09 09:26:37;;;;;;;9.27;4.15;;;;;;;;;;5052307;28;20117;-31
2022/05/09 09:29:11;;;;;;;6.97;3.72;;;;;;;;;;5052070;28;20452;-31
2022/05/09 09:31:51;;;;;;;9.00;3.90;;;;;;;;;;5052793;28;20047;-34
2022/05/09 09:34:24;;;;;;;9.98;4.10;;;;;;;;;;5044499;28;20045;-31
2022/05/09 09:36:57;;;;;;;7.43;3.47;;;;;;;;;;5052308;28;20045;-31
2022/05/09 09:39:26;;;;;;;10.38;3.90;;;;;;;;;;5051668;28;20049;-31
2022/05/09 09:41:55;;;;;;;6.85;3.25;;;;;;;;;;5052230;28;20037;-32
2022/05/09 09:44:25;;;;;;;10.70;3.70;;;;;;;;;;5050295;28;20053;-33
2022/05/09 09:47:03;;;;;;;6.32;3.67;;;;;;;;;;5050137;28;20110;-32
2022/05/09 09:49:30;;;;;;;8.13;3.42;;;;;;;;;;5049014;28;20371;-32
2022/05/09 09:51:57;;;;;;;6.43;3.42;;;;;;;;;;5051545;28;20072;-32
2022/05/09 09:54:26;;;;;;;10.10;4.13;;;;;;;;;;5050687;28;20051;-31
2022/05/09 09:56:53;;;;;;;7.97;3.55;;;;;;;;;;5051926;28;20127;-31
2022/05/09 09:59:30;;;;;;;8.65;3.35;;;;;;;;;;5051076;28;20132;-32
2022/05/09 10:02:01;;;;;;;9.50;3.45;;;;;;;;;;5050955;28;20043;-32
2022/05/09 10:04:28;;;;;;;8.15;3.13;;;;;;;;;;5051276;28;20051;-32
2022/05/09 10:07:02;;;;;;;9.48;3.47;;;;;;;;;;5050994;28;20525;-31
2022/05/09 10:09:30;;;;;;;8.48;3.30;;;;;;;;;;5050638;28;20045;-30
2022/05/09 10:12:26;;;;;;;13.15;4.03;;;;;;;;;;5043555;28;20036;-30
2022/05/09 10:14:52;;;;;;;8.55;2.92;;;;;;;;;;5038119;28;20053;-31
2022/05/09 10:17:34;;;;;;;8.38;3.25;;;;;;;;;;5051245;28;20037;-30
2022/05/09 10:20:01;;;;;;;7.15;3.60;;;;;;;;;;5047824;28;20041;-33
2022/05/09 10:25:28;;;;;;;7.57;3.53;;;;;;;;;;5037474;28;20409;-31
2022/05/09 10:28:07;;;;;;;7.60;3.38;;;;;;;;;;5052814;28;20037;-31
2022/05/09 10:30:35;;;;;;;9.07;3.88;;;;;;;;;;5051562;28;20071;-33
2022/05/09 10:33:19;;;;;;;6.55;3.08;;;;;;;;;;5034459;28;20048;-31
2022/05/09 10:35:51;;;;;;;6.82;3.50;;;;;;;;;;5044438;28;20029;-30
2022/05/09 10:38:21;;;;;;;7.55;3.42;;;;;;;;;;5048373;28;20132;-31
2022/05/09 10:40:54;;;;;;;9.30;3.78;;;;;;;;;;5040480;28;20483;-30
2022/05/09 10:43:27;;;;;;;6.38;2.90;;;;;;;;;;5051146;28;20246;-31
2022/05/09 10:45:54;;;;;;;8.32;3.10;;;;;;;;;;5051645;28;20051;-31
2022/05/09 10:48:26;;;;;;;6.78;2.92;;;;;;;;;;5048482;28;20037;-31
2022/05/09 10:51:02;;;;;;;6.00;3.10;;;;;;;;;;5050954;28;20375;-31
2022/05/09 10:53:32;;;;;;;7.35;2.65;;;;;;;;;;5051290;28;20390;-31
2022/05/09 10:56:04;;;;;;;9.90;3.22;;;;;;;;;;5050930;28;20120;-31
2022/05/09 10:58:35;;;;;;;6.85;2.80;;;;;;;;;;5050340;28;20029;-31
2022/05/09 11:01:06;;;;;;;9.02;2.60;;;;;;;;;;5051236;28;20041;-32
2022/05/09 11:03:37;;;;;;;7.65;3.08;;;;;;;;;;5032347;28;20094;-31
2022/05/09 11:06:03;;;;;;;6.40;2.60;;;;;;;;;;5049523;28;20047;-31
2022/05/09 11:08:35;;;;;;;5.55;3.17;;;;;;;;;;5042012;28;20061;-31
2022/05/09 11:11:09;;;;;;;5.23;2.40;;;;;;;;;;5049910;28;20037;-29
2022/05/09 11:13:55;;;;;;;5.15;2.50;;;;;;;;;;5051831;28;20068;-29
2022/05/09 11:16:40;;;;;;;4.53;2.20;;;;;;;;;;5051363;28;20036;-28
2022/05/09 11:19:18;;;;;;;7.93;2.70;;;;;;;;;;5051350;28;20041;-30
2022/05/09 11:21:56;;;;;;;6.82;3.08;;;;;;;;;;5033262;28;20045;-29
2022/05/09 11:24:31;;;;;;;7.45;2.80;;;;;;;;;;5051735;28;20044;-28
2022/05/09 11:27:06;;;;;;;7.88;3.35;;;;;;;;;;5051112;28;20119;-29
2022/05/09 11:29:39;;;;;;;7.80;2.75;;;;;;;;;;5051200;28;20049;-30
2022/05/09 11:32:05;;;;;;;8.88;3.20;;;;;;;;;;5051637;28;20051;-27
2022/05/09 11:34:37;;;;;;;7.20;2.67;;;;;;;;;;5051523;28;20045;-30
2022/05/09 11:37:19;;;;;;;7.47;2.83;;;;;;;;;;5056379;28;20041;-29
2022/05/09 11:40:12;;;;;;;6.35;2.40;;;;;;;;;;5039659;28;20056;-28
2022/05/09 11:45:44;;;;;;;4.22;2.55;;;;;;;;;;5037947;28;20132;-29
2022/05/09 11:48:16;;;;;;;9.00;2.83;;;;;;;;;;5038096;28;20053;-29
2022/05/09 11:50:46;;;;;;;6.25;2.22;;;;;;;;;;5037941;28;20479;-30
2022/05/09 11:53:13;;;;;;;6.00;3.10;;;;;;;;;;5038040;28;20049;-29
2022/05/09 11:55:41;;;;;;;5.43;2.60;;;;;;;;;;5037835;28;20051;-30
2022/05/09 11:58:07;;;;;;;5.75;2.40;;;;;;;;;;5037549;28;20047;-28
2022/05/09 12:00:33;;;;;;;6.90;2.72;;;;;;;;;;5038022;28;20212;-29
2022/05/09 12:03:00;;;;;;;5.72;3.10;;;;;;;;;;5038093;28;20049;-29
2022/05/09 12:05:26;;;;;;;7.78;2.85;;;;;;;;;;5038178;28;20037;-29
2022/05/09 12:08:04;;;;;;;5.80;2.60;;;;;;;;;;5020104;28;20052;-32
2022/05/09 12:10:32;;;;;;;5.40;2.72;;;;;;;;;;5037933;28;20461;-30
2022/05/09 12:13:14;;;;;;;6.72;2.90;;;;;;;;;;5037927;28;20044;-28
2022/05/09 12:15:46;;;;;;;6.38;2.30;;;;;;;;;;5038350;28;20053;-30
2022/05/09 12:18:20;;;;;;;7.57;2.88;;;;;;;;;;5037986;28;20091;-29
2022/05/09 12:20:49;;;;;;;7.25;2.70;;;;;;;;;;5037852;28;20052;-30
2022/05/09 12:23:34;;;;;;;5.50;2.80;;;;;;;;;;5040772;28;20039;-29
2022/05/09 12:26:03;;;;;;;7.28;2.70;;;;;;;;;;5057950;28;20287;-29
2022/05/09 12:28:39;;;;;;;4.30;2.20;;;;;;;;;;5057374;28;20040;-28
2022/05/09 12:31:24;;;;;;;5.85;2.72;;;;;;;;;;5057287;28;20052;-30
2022/05/09 12:33:51;;;;;;;5.53;2.30;;;;;;;;;;5057237;28;20051;-28
2022/05/09 12:36:20;;;;;;;7.65;2.33;;;;;;;;;;5039867;28;20052;-29
2022/05/09 12:38:49;;;;;;;5.30;2.50;;;;;;;;;;5057356;28;20044;-30
2022/05/09 12:41:20;;;;;;;6.65;2.47;;;;;;;;;;5057911;28;20037;-28
2022/05/09 12:43:50;;;;;;;5.28;2.40;;;;;;;;;;5057782;28;20052;-29
2022/05/09 12:46:21;;;;;;;5.20;2.38;;;;;;;;;;5057645;28;20124;-28
2022/05/09 12:48:48;;;;;;;6.43;2.13;;;;;;;;;;5054028;28;20072;-28
2022/05/09 12:51:14;;;;;;;4.93;2.30;;;;;;;;;;5054004;28;20037;-28
2022/05/09 12:53:41;;;;;;;6.88;2.30;;;;;;;;;;5053906;28;20044;-29
2022/05/09 12:56:08;;;;;;;4.63;2.45;;;;;;;;;;5054439;28;20058;-29
2022/05/09 12:58:36;;;;;;;4.45;2.53;;;;;;;;;;5041717;28;20037;-29
2022/05/09 13:01:19;;;;;;;3.95;2.08;;;;;;;;;;5034200;28;20179;-30
2022/05/09 13:03:47;;;;;;;4.32;2.38;;;;;;;;;;5033918;28;20124;-28
2022/05/09 13:06:15;;;;;;;5.07;2.40;;;;;;;;;;5042140;28;20117;-30
2022/05/09 13:08:41;;;;;;;4.90;2.45;;;;;;;;;;5051920;28;20041;-29
2022/05/09 13:11:14;;;;;;;4.20;2.10;;;;;;;;;;5053528;28;20049;-29
2022/05/09 13:13:44;;;;;;;7.57;2.00;;;;;;;;;;5043178;28;20134;-28
2022/05/09 13:16:14;;;;;;;4.43;2.50;;;;;;;;;;5050185;28;20037;-28
2022/05/09 13:18:40;;;;;;;7.32;2.40;;;;;;;;;;5053753;28;20116;-28
2022/05/09 13:21:09;;;;;;;5.53;2.20;;;;;;;;;;5053167;28;20037;-28
2022/05/09 13:23:42;;;;;;;3.70;2.50;;;;;;;;;;5053858;28;20044;-34
2022/05/09 13:26:08;;;;;;;;;;;;;;;;;;5047788;28;20311;-28
2022/05/09 13:29:09;;;;;;;6.78;2.55;;;;;;;;;;5050426;28;19920;-30
2022/05/09 13:31:35;;;;;;;5.22;2.60;;;;;;;;;;5025638;28;20049;-28
2022/05/09 13:34:03;;;;;;;5.18;2.58;;;;;;;;;;5033442;28;20480;-29
2022/05/09 13:36:37;;;;;;;4.38;2.40;;;;;;;;;;5041437;28;20032;-31
2022/05/09 13:39:04;;;;;;;3.72;2.20;;;;;;;;;;5045801;28;20040;-32
2022/05/09 13:41:30;;;;;;;3.90;1.95;;;;;;;;;;5034338;28;20048;-35
2022/05/09 13:43:59;;;;;;;6.88;2.50;;;;;;;;;;5052514;28;20094;-35
2022/05/09 13:46:25;;;;;;;4.75;2.13;;;;;;;;;;5052147;28;20111;-31
2022/05/09 13:48:53;;;;;;;5.32;2.20;;;;;;;;;;5045787;28;20043;-33
2022/05/09 13:51:28;;;;;;;9.75;3.38;;;;;;;;;;5051592;28;20037;-31
2022/05/09 13:53:56;;;;;;;7.57;3.28;;;;;;;;;;5050896;28;20052;-33
2022/05/09 13:56:26;;;;;;;4.95;2.40;;;;;;;;;;5051518;28;20102;-34
2022/05/09 13:58:59;;;;;;;6.13;2.50;;;;;;;;;;5050230;28;20047;-35
2022/05/09 14:01:26;;;;;;;3.95;2.67;;;;;;;;;;5050501;28;20713;-31
2022/05/09 14:03:54;;;;;;;5.88;2.60;;;;;;;;;;5051707;28;20099;-35
2022/05/09 14:06:21;;;;;;;6.35;2.88;;;;;;;;;;5050625;28;20120;-33
2022/05/09 14:08:52;;;;;;;5.30;2.70;;;;;;;;;;5050796;28;20103;-32
2022/05/09 14:11:33;;;;;;;5.40;2.80;;;;;;;;;;5051433;28;20033;-32
2022/05/09 14:14:00;;;;;;;5.93;2.30;;;;;;;;;;5051522;28;20582;-32
2022/05/09 14:16:41;;;;;;;4.07;2.10;;;;;;;;;;5050228;28;20037;-32
2022/05/09 14:19:07;;;;;;;5.35;2.20;;;;;;;;;;5044851;28;20060;-37
2022/05/09 14:21:42;;;;;;;6.18;2.67;;;;;;;;;;5042814;28;20440;-33
2022/05/09 14:24:08;;;;;;;6.15;2.60;;;;;;;;;;5041543;28;20045;-32
2022/05/09 14:29:38;;;;;;;7.38;2.25;;;;;;;;;;5041812;28;20562;-31
2022/05/09 14:32:06;;;;;;;5.43;2.45;;;;;;;;;;5044591;28;20037;-31
2022/05/09 14:34:38;;;;;;;5.70;2.58;;;;;;;;;;5048299;28;20037;-31
2022/05/09 14:37:22;;;;;;;4.78;2.28;;;;;;;;;;5041883;28;20490;-31
2022/05/09 14:40:00;;;;;;;6.15;2.90;;;;;;;;;;5050341;28;20033;-31
2022/05/09 14:42:31;;;;;;;5.63;2.40;;;;;;;;;;5050976;28;20170;-33
2022/05/09 14:45:04;;;;;;;4.43;2.58;;;;;;;;;;5033299;28;20045;-32
2022/05/09 14:47:34;;;;;;;4.30;2.17;;;;;;;;;;5050807;28;20044;-31
2022/05/09 14:50:10;;;;;;;4.38;2.03;;;;;;;;;;5043092;28;20541;-31
2022/05/09 14:52:40;;;;;;;2.92;2.30;;;;;;;;;;5049726;28;20044;-31
2022/05/09 14:58:20;;;;;;;2.80;1.90;;;;;;;;;;5049915;28;20040;-30
2022/05/09 15:01:10;;;;;;;5.35;2.75;;;;;;;;;;5047150;28;20037;-31
2022/05/09 15:03:36;;;;;;;4.70;2.47;;;;;;;;;;5033766;28;20186;-32